Time;durP1;ratioP1;P1;durP2;ratioP2;P2;SDS_P1;SDS_P2;PMS_P1;PMS_P2;Temp;Humidity;BMP_temperature;BMP_pressure;BME280_temperature;BME280_humidity;BME280_pressure;Samples;Min_cycle;Max_cycle;Signal;HPM_P1;HPM_P2
2022/12/11 00:00:03;;;;;;;21.10;14.00;;;;;;;-0.42;83.30;98944.20;210478;1300;141208;-69
2022/12/11 00:05:08;;;;;;;29.00;13.50;;;;;;;-0.45;83.55;98944.05;210502;1295;140025;-66
2022/12/11 00:10:14;;;;;;;31.80;15.70;;;;;;;-0.46;83.26;98934.79;210595;1292;140469;-68
2022/12/11 00:15:18;;;;;;;27.30;14.00;;;;;;;-0.43;83.66;98927.59;210540;1288;140528;-68
2022/12/11 00:20:23;;;;;;;25.20;14.80;;;;;;;-0.48;83.49;98921.41;210456;1295;141422;-67
2022/12/11 00:25:27;;;;;;;22.80;11.70;;;;;;;-0.52;83.45;98922.96;208612;1294;141090;-66
2022/12/11 00:30:32;;;;;;;28.70;13.80;;;;;;;-0.51;82.94;98926.25;210302;1294;140571;-65
2022/12/11 00:35:44;;;;;;;28.40;14.90;;;;;;;-0.57;83.00;98937.31;210415;1295;140485;-67
2022/12/11 00:40:49;;;;;;;28.70;15.90;;;;;;;-0.59;83.34;98947.56;210570;1295;140193;-63
2022/12/11 00:45:54;;;;;;;22.50;12.40;;;;;;;-0.59;83.24;98946.44;210667;1294;139911;-63
2022/12/11 00:50:58;;;;;;;24.70;14.20;;;;;;;-0.54;83.25;98952.53;210349;1294;140755;-63
2022/12/11 00:56:08;;;;;;;28.20;16.00;;;;;;;-0.53;83.17;98951.02;210431;1292;141360;-64
2022/12/11 01:01:19;;;;;;;32.90;15.80;;;;;;;-0.58;83.14;98946.48;210573;1295;140464;-66
2022/12/11 01:06:27;;;;;;;30.20;16.10;;;;;;;-0.53;83.05;98946.27;210402;1295;140548;-64
2022/12/11 01:11:31;;;;;;;28.60;16.60;;;;;;;-0.54;82.80;98934.37;210142;1292;141129;-66
2022/12/11 01:16:35;;;;;;;33.90;19.50;;;;;;;-0.62;83.03;98931.51;210033;1285;140476;-63
2022/12/11 01:21:40;;;;;;;39.40;19.50;;;;;;;-0.66;82.89;98925.91;209617;1293;140254;-66
2022/12/11 01:26:45;;;;;;;40.30;21.90;;;;;;;-0.66;83.29;98925.23;209340;1294;140446;-66
2022/12/11 01:31:50;;;;;;;35.00;19.10;;;;;;;-0.71;83.32;98924.19;210340;1290;139907;-66
2022/12/11 01:36:54;;;;;;;35.70;16.10;;;;;;;-0.75;82.92;98915.53;209765;1295;246373;-63
2022/12/11 01:42:00;;;;;;;39.30;21.60;;;;;;;-0.73;83.35;98911.69;210454;1295;140286;-62
2022/12/11 01:47:04;;;;;;;40.70;19.00;;;;;;;-0.75;83.31;98909.98;210470;1292;140653;-63
2022/12/11 01:52:18;;;;;;;36.90;17.30;;;;;;;-0.77;83.65;98907.73;210399;1286;150361;-62
2022/12/11 01:57:22;;;;;;;34.60;18.80;;;;;;;-0.72;83.34;98905.13;210527;1300;140320;-66
2022/12/11 02:02:29;;;;;;;50.50;23.40;;;;;;;-0.76;83.28;98900.83;210336;1295;141303;-66
2022/12/11 02:07:40;;;;;;;36.00;18.50;;;;;;;-0.84;83.13;98898.33;210208;1294;141040;-64
2022/12/11 02:13:08;;;;;;;40.10;16.80;;;;;;;-0.87;83.43;98891.77;210279;1301;140929;-66
2022/12/11 02:18:24;;;;;;;30.30;17.00;;;;;;;-0.89;83.07;98884.86;210103;1294;141016;-64
2022/12/11 02:23:47;;;;;;;30.70;16.50;;;;;;;-0.98;83.07;98877.59;210341;1295;140873;-63
2022/12/11 02:29:07;;;;;;;32.10;16.80;;;;;;;-1.04;83.21;98869.67;210366;1294;141149;-63
2022/12/11 02:34:24;;;;;;;31.10;18.10;;;;;;;-1.07;83.13;98864.67;209854;1294;140516;-64
2022/12/11 02:39:30;;;;;;;30.40;17.90;;;;;;;-1.14;83.22;98860.76;210485;1288;141022;-62
2022/12/11 02:44:39;;;;;;;30.00;16.50;;;;;;;-1.17;83.06;98851.17;210378;1294;140226;-66
2022/12/11 02:49:46;;;;;;;;;;;;;;;-1.21;83.27;98851.98;210489;1298;141455;-64
2022/12/11 02:54:53;;;;;;;30.90;17.00;;;;;;;-1.24;83.63;98849.58;210959;1294;125678;-64
2022/12/11 02:59:58;;;;;;;26.60;14.40;;;;;;;-1.17;82.99;98846.11;210309;1294;140336;-63
2022/12/11 03:05:04;;;;;;;32.50;16.30;;;;;;;-1.19;83.05;98851.44;210275;1288;140060;-63
2022/12/11 03:10:13;;;;;;;31.00;15.90;;;;;;;-1.26;83.17;98854.38;210301;1295;140377;-64
2022/12/11 03:15:22;;;;;;;33.50;16.50;;;;;;;-1.25;83.02;98859.34;210495;1292;140317;-64
2022/12/11 03:20:46;;;;;;;24.60;14.00;;;;;;;-1.23;82.78;98860.12;210312;1292;140362;-63
2022/12/11 03:26:12;;;;;;;29.50;15.50;;;;;;;-1.30;82.87;98858.21;210496;1295;139922;-66
2022/12/11 03:31:38;;;;;;;28.20;14.20;;;;;;;-1.35;82.90;98866.72;209044;1297;139598;-65
2022/12/11 03:36:46;;;;;;;31.40;18.60;;;;;;;-1.34;82.91;98864.39;210419;1295;140764;-66
2022/12/11 03:41:54;;;;;;;27.90;15.20;;;;;;;-1.40;82.70;98864.31;209991;1285;139702;-65
2022/12/11 03:47:00;;;;;;;;;;;;;;;-1.48;82.71;98867.92;210380;1293;141001;-67
2022/12/11 03:52:08;;;;;;;23.70;14.40;;;;;;;-1.46;83.05;98866.95;211016;1291;126920;-67
2022/12/11 03:57:17;;;;;;;26.30;15.50;;;;;;;-1.46;82.80;98860.79;210084;1285;248496;-67
2022/12/11 04:02:22;;;;;;;36.80;15.20;;;;;;;-1.48;82.94;98863.53;210577;1295;140687;-65
2022/12/11 04:07:27;;;;;;;25.80;16.30;;;;;;;-1.39;83.00;98864.08;210458;1295;140516;-65
2022/12/11 04:12:33;;;;;;;34.50;19.10;;;;;;;-1.38;82.79;98865.98;210501;1290;141351;-66
2022/12/11 04:28:44;;;;;;;37.10;19.70;;;;;;;-1.48;82.65;98860.11;210402;1295;224776;-66
2022/12/11 04:33:48;;;;;;;31.00;16.90;;;;;;;-1.54;82.59;98851.77;210603;1296;140960;-65
2022/12/11 04:38:54;;;;;;;28.30;17.40;;;;;;;-1.52;82.70;98843.29;210373;1292;140481;-65
2022/12/11 04:43:58;;;;;;;31.40;18.70;;;;;;;-1.52;82.91;98837.07;210528;1284;140450;-65
2022/12/11 04:49:03;;;;;;;31.90;16.20;;;;;;;-1.55;82.93;98838.52;210639;1292;140923;-65
2022/12/11 04:54:09;;;;;;;35.50;19.00;;;;;;;-1.52;82.73;98831.60;210607;1292;140951;-65
2022/12/11 04:59:14;;;;;;;38.20;23.40;;;;;;;-1.56;82.52;98827.80;210585;1292;139826;-65
2022/12/11 05:04:19;;;;;;;45.60;21.70;;;;;;;-1.62;82.76;98821.89;210585;1292;139928;-65
2022/12/11 05:09:25;;;;;;;36.80;21.00;;;;;;;-1.58;82.79;98819.66;210676;1292;140891;-65
2022/12/11 05:14:31;;;;;;;37.10;20.30;;;;;;;-1.58;82.71;98815.85;210645;1292;140979;-65
2022/12/11 05:19:36;;;;;;;37.70;21.10;;;;;;;-1.59;82.88;98811.54;210567;1285;140286;-66
2022/12/11 05:24:40;;;;;;;33.20;17.40;;;;;;;-1.58;82.76;98808.48;210538;1292;141250;-67
2022/12/11 05:29:45;;;;;;;32.90;17.70;;;;;;;-1.50;82.67;98806.65;210592;1292;141939;-65
2022/12/11 05:34:50;;;;;;;33.80;18.20;;;;;;;-1.51;82.88;98801.92;210480;1289;139442;-66
2022/12/11 05:39:56;;;;;;;33.30;17.50;;;;;;;-1.56;82.61;98804.42;210731;1285;140552;-65
2022/12/11 05:45:02;;;;;;;34.70;18.40;;;;;;;-1.59;82.51;98799.27;210634;1292;247229;-65
2022/12/11 05:50:07;;;;;;;29.80;18.90;;;;;;;-1.55;82.74;98794.86;210631;1292;140232;-65
2022/12/11 05:55:13;;;;;;;24.20;15.50;;;;;;;-1.51;82.76;98793.13;210172;1292;141437;-65
2022/12/11 06:00:18;;;;;;;25.50;14.90;;;;;;;-1.55;82.45;98789.52;210567;1292;139402;-65
2022/12/11 06:05:23;;;;;;;23.10;14.20;;;;;;;-1.56;82.59;98789.63;210501;1292;140097;-65
2022/12/11 06:10:27;;;;;;;29.40;18.90;;;;;;;-1.53;82.35;98793.99;210535;1285;141183;-64
2022/12/11 06:15:32;;;;;;;22.20;13.10;;;;;;;-1.60;82.58;98794.46;210731;1298;139507;-65
2022/12/11 06:20:38;;;;;;;28.40;16.70;;;;;;;-1.70;82.35;98796.17;210682;1292;139990;-65
2022/12/11 06:25:41;;;;;;;26.40;15.10;;;;;;;-1.73;82.23;98795.64;209062;1286;142280;-64
2022/12/11 06:30:45;;;;;;;26.00;16.10;;;;;;;-1.84;82.48;98791.63;209583;1294;140399;-64
2022/12/11 06:35:50;;;;;;;20.00;14.00;;;;;;;-1.87;82.51;98792.39;210534;1284;139956;-65
2022/12/11 06:40:56;;;;;;;22.80;13.80;;;;;;;-1.86;82.35;98790.71;210614;1285;140958;-65
2022/12/11 06:46:05;;;;;;;23.00;15.40;;;;;;;-1.89;82.26;98790.38;209512;1296;141879;-65
2022/12/11 06:51:12;;;;;;;28.50;13.70;;;;;;;-1.91;82.61;98786.78;210727;1293;247391;-64
2022/12/11 06:56:17;;;;;;;30.50;15.70;;;;;;;-1.96;82.59;98796.19;210548;1292;139773;-67
2022/12/11 07:01:25;;;;;;;25.80;14.30;;;;;;;-1.97;82.41;98801.88;210424;1292;140589;-67
2022/12/11 07:06:30;;;;;;;24.90;15.60;;;;;;;-1.98;82.62;98800.29;210596;1298;243565;-67
2022/12/11 07:11:33;;;;;;;28.50;14.60;;;;;;;-1.99;82.54;98804.70;210459;1292;139595;-67
2022/12/11 07:16:37;;;;;;;25.50;15.30;;;;;;;-1.95;82.29;98805.92;210440;1288;141232;-68
2022/12/11 07:21:42;;;;;;;28.00;15.00;;;;;;;-1.90;82.66;98811.48;210554;1291;140546;-67
2022/12/11 07:26:46;;;;;;;20.00;13.40;;;;;;;-1.92;82.54;98804.77;210397;1285;151234;-67
2022/12/11 07:31:53;;;;;;;25.80;14.50;;;;;;;-1.95;82.54;98800.13;210329;1295;140468;-69
2022/12/11 07:36:57;;;;;;;26.10;15.10;;;;;;;-1.97;82.29;98797.05;210314;1295;140794;-67
2022/12/11 07:42:00;;;;;;;28.60;17.60;;;;;;;-1.98;82.63;98790.01;210400;1291;140623;-69
2022/12/11 07:47:04;;;;;;;24.20;12.00;;;;;;;-2.03;82.70;98788.67;210432;1295;141300;-67
2022/12/11 07:52:08;;;;;;;28.50;15.40;;;;;;;-2.04;82.53;98789.23;207991;1286;141696;-67
2022/12/11 07:57:14;;;;;;;23.00;14.00;;;;;;;-2.05;82.61;98783.14;210680;1295;220036;-67
2022/12/11 08:02:19;;;;;;;31.80;17.70;;;;;;;-2.10;82.71;98779.36;210412;1295;150828;-67
2022/12/11 08:07:23;;;;;;;26.30;16.10;;;;;;;-2.11;83.03;98778.14;210446;1279;141219;-67
2022/12/11 08:12:27;;;;;;;25.20;14.30;;;;;;;-2.08;82.97;98776.22;208724;1291;140838;-67
2022/12/11 08:17:31;;;;;;;21.20;13.60;;;;;;;-2.00;83.06;98775.63;209008;1295;141881;-65
2022/12/11 08:22:42;;;;;;;21.60;12.90;;;;;;;-2.03;83.13;98769.64;210038;1292;140435;-66
2022/12/11 08:27:45;;;;;;;24.60;13.10;;;;;;;-2.03;83.26;98768.86;210007;1291;141601;-66
2022/12/11 08:32:51;;;;;;;27.20;13.30;;;;;;;-1.97;83.02;98764.79;210251;1299;140736;-66
2022/12/11 08:37:55;;;;;;;24.40;14.80;;;;;;;-1.92;83.14;98770.36;210336;1284;139535;-65
2022/12/11 08:42:58;;;;;;;19.90;11.70;;;;;;;-1.86;83.32;98776.41;209536;1287;140764;-68
2022/12/11 08:48:02;;;;;;;26.20;14.80;;;;;;;-1.80;83.26;98780.17;208979;1278;139357;-65
2022/12/11 08:53:07;;;;;;;20.30;11.90;;;;;;;-1.70;83.36;98776.31;210710;1292;140202;-65
2022/12/11 08:58:12;;;;;;;21.40;13.50;;;;;;;-1.64;83.12;98775.42;210707;1292;140137;-65
2022/12/11 09:03:19;;;;;;;16.50;11.40;;;;;;;-1.58;82.95;98775.36;210747;1292;140934;-67
2022/12/11 09:08:22;;;;;;;21.50;13.20;;;;;;;-1.52;83.19;98768.71;210558;1292;140351;-66
2022/12/11 09:13:26;;;;;;;23.80;13.80;;;;;;;-1.46;83.07;98753.91;210648;1300;139549;-65
2022/12/11 09:18:30;;;;;;;21.00;12.40;;;;;;;-1.34;82.91;98757.30;210533;1292;140989;-65
2022/12/11 09:23:35;;;;;;;21.90;13.40;;;;;;;-1.25;82.76;98752.48;210621;1281;140649;-66
2022/12/11 09:28:40;;;;;;;22.90;13.00;;;;;;;-1.22;82.83;98747.70;210537;1300;141422;-66
2022/12/11 09:33:50;;;;;;;22.50;13.60;;;;;;;-1.20;82.54;98744.81;210822;1292;151985;-65
2022/12/11 09:38:55;;;;;;;25.50;13.50;;;;;;;-1.12;82.46;98736.74;210589;1292;140948;-65
2022/12/11 09:44:20;;;;;;;23.00;14.40;;;;;;;-1.03;82.38;98726.88;210625;1300;140290;-65
2022/12/11 09:49:26;;;;;;;17.40;12.60;;;;;;;-0.97;82.39;98716.80;210514;1298;141567;-65
2022/12/11 09:54:31;;;;;;;22.80;12.30;;;;;;;-0.97;82.52;98709.71;207742;1294;140159;-65
2022/12/11 09:59:58;;;;;;;20.40;13.30;;;;;;;-1.05;82.26;98702.71;207616;1291;140080;-66
2022/12/11 10:05:27;;;;;;;18.50;11.30;;;;;;;-1.07;81.88;98697.19;210567;1292;140284;-66
2022/12/11 10:10:55;;;;;;;19.00;11.60;;;;;;;-1.07;81.81;98694.51;210227;1292;141727;-66
2022/12/11 10:16:33;;;;;;;22.30;10.80;;;;;;;-1.12;81.86;98689.39;207720;1291;139842;-65
2022/12/11 10:21:40;;;;;;;17.90;11.30;;;;;;;-1.13;81.94;98685.63;209073;1292;142246;-65
2022/12/11 10:26:46;;;;;;;22.20;14.40;;;;;;;-1.04;81.79;98685.05;207231;1284;141195;-64
2022/12/11 10:31:57;;;;;;;22.00;12.40;;;;;;;-0.98;81.80;98687.81;210285;1298;141172;-65
2022/12/11 10:37:03;;;;;;;20.70;11.30;;;;;;;-1.01;81.84;98678.60;210529;1292;140297;-65
2022/12/11 10:42:18;;;;;;;18.20;11.70;;;;;;;-0.97;81.47;98677.44;210479;1293;140499;-65
2022/12/11 10:47:23;;;;;;;15.90;11.20;;;;;;;-0.97;81.56;98668.71;210417;1298;140542;-65
2022/12/11 10:52:37;;;;;;;19.20;11.60;;;;;;;-0.95;81.79;98656.77;210524;1294;140569;-65
2022/12/11 10:57:43;;;;;;;18.10;12.10;;;;;;;-0.96;81.16;98644.62;210491;1292;140036;-65
2022/12/11 11:02:48;;;;;;;18.20;10.40;;;;;;;-0.98;80.73;98637.34;210678;1295;141913;-64
2022/12/11 11:08:15;;;;;;;16.00;11.30;;;;;;;-1.00;80.68;98630.20;210574;1293;245622;-65
2022/12/11 11:13:26;;;;;;;9.50;7.10;;;;;;;-0.97;81.13;98629.79;210572;1298;140643;-64
2022/12/11 11:18:31;;;;;;;17.00;11.30;;;;;;;-1.03;80.78;98623.17;210596;1298;140126;-65
2022/12/11 11:23:39;;;;;;;19.00;12.00;;;;;;;-1.03;80.75;98618.67;210546;1290;141698;-65
2022/12/11 11:28:52;;;;;;;19.20;12.70;;;;;;;-0.99;80.95;98615.61;210601;1292;219598;-64
2022/12/11 11:33:59;;;;;;;23.20;13.90;;;;;;;-0.96;81.10;98610.24;210751;1298;140823;-65
2022/12/11 11:39:36;;;;;;;17.10;11.40;;;;;;;-0.95;81.10;98609.84;210454;1292;140139;-65
2022/12/11 11:44:46;;;;;;;23.00;12.00;;;;;;;-0.93;80.76;98608.34;210644;1296;140040;-64
2022/12/11 11:50:02;;;;;;;18.00;10.90;;;;;;;-0.81;80.78;98596.10;210649;1291;141729;-64
2022/12/11 11:55:14;;;;;;;17.30;11.30;;;;;;;-0.82;80.40;98593.03;210490;1299;144595;-64
2022/12/11 12:00:26;;;;;;;20.30;12.20;;;;;;;-0.88;80.45;98581.55;210372;1292;140180;-65
2022/12/11 12:06:01;;;;;;;19.60;13.00;;;;;;;-0.93;80.57;98574.73;210570;1293;140868;-65
2022/12/11 12:11:32;;;;;;;23.30;15.30;;;;;;;-0.93;80.27;98579.32;210546;1292;140803;-64
2022/12/11 12:16:51;;;;;;;29.90;18.30;;;;;;;-0.92;80.46;98574.94;210105;1298;141981;-66
2022/12/11 12:22:07;;;;;;;23.00;14.20;;;;;;;-0.88;80.80;98559.90;210761;1284;140581;-64
2022/12/11 12:27:48;;;;;;;28.00;16.40;;;;;;;-0.87;80.40;98559.55;210113;1285;248980;-64
2022/12/11 12:33:11;;;;;;;17.90;13.40;;;;;;;-0.81;80.31;98565.67;210156;1298;140717;-66
2022/12/11 12:38:21;;;;;;;18.70;12.40;;;;;;;-0.82;80.42;98567.36;210574;1296;139981;-64
2022/12/11 12:43:45;;;;;;;17.80;13.10;;;;;;;-0.86;80.56;98561.41;210658;1295;140783;-64
2022/12/11 12:48:53;;;;;;;21.80;12.50;;;;;;;-0.90;80.07;98551.89;210749;1298;236185;-64
2022/12/11 12:54:02;;;;;;;21.00;13.30;;;;;;;-0.96;79.93;98557.61;210664;1298;139716;-64
2022/12/11 12:59:23;;;;;;;24.60;17.60;;;;;;;-1.02;80.15;98560.81;210621;1298;245025;-65
2022/12/11 13:04:34;;;;;;;24.80;15.10;;;;;;;-1.07;80.49;98561.77;210725;1298;139480;-64
2022/12/11 13:10:24;;;;;;;27.90;16.60;;;;;;;-1.12;80.45;98557.71;210728;1298;141083;-64
2022/12/11 13:15:43;;;;;;;26.00;14.50;;;;;;;-1.19;80.49;98561.79;210820;1292;139369;-64
2022/12/11 13:20:50;;;;;;;25.50;17.20;;;;;;;-1.16;80.07;98564.35;210355;1299;140239;-64
2022/12/11 13:26:00;;;;;;;22.60;14.80;;;;;;;-1.20;80.01;98567.22;210705;1297;140379;-64
2022/12/11 13:31:14;;;;;;;23.30;14.60;;;;;;;-1.31;80.15;98570.50;210635;1290;139779;-64
2022/12/11 13:36:38;;;;;;;21.80;13.90;;;;;;;-1.39;80.10;98566.12;210568;1293;140250;-64
2022/12/11 13:41:50;;;;;;;32.50;16.30;;;;;;;-1.42;80.37;98560.70;210420;1298;140225;-64
2022/12/11 13:46:58;;;;;;;29.50;19.50;;;;;;;-1.41;80.37;98560.02;210547;1298;141914;-64
2022/12/11 13:52:03;;;;;;;22.00;14.80;;;;;;;-1.41;80.17;98562.29;210572;1295;141993;-65
2022/12/11 13:57:08;;;;;;;22.50;14.00;;;;;;;-1.49;80.32;98561.59;210346;1295;139974;-65
2022/12/11 14:02:21;;;;;;;20.80;12.00;;;;;;;-1.57;80.44;98573.75;209808;1290;139990;-64
2022/12/11 14:07:32;;;;;;;23.60;14.40;;;;;;;-1.65;80.26;98576.30;210480;1298;141578;-64
2022/12/11 14:12:36;;;;;;;24.30;14.20;;;;;;;-1.70;80.06;98570.91;210430;1293;140394;-66
2022/12/11 14:17:42;;;;;;;25.20;14.10;;;;;;;-1.73;80.14;98576.34;209098;1284;141840;-64
2022/12/11 14:23:31;;;;;;;27.90;16.00;;;;;;;-1.81;80.45;98572.60;210560;1291;140263;-64
2022/12/11 14:28:40;;;;;;;24.60;13.70;;;;;;;-1.89;80.48;98575.66;210259;1301;140415;-64
2022/12/11 14:33:51;;;;;;;27.10;15.80;;;;;;;-1.86;80.67;98576.02;210525;1293;140996;-62
2022/12/11 14:39:03;;;;;;;25.90;14.10;;;;;;;-1.88;80.53;98574.63;210488;1292;139826;-63
2022/12/11 14:44:14;;;;;;;23.50;15.70;;;;;;;-1.94;80.57;98567.43;210426;1295;141553;-66
2022/12/11 14:49:33;;;;;;;23.30;14.70;;;;;;;-2.03;80.65;98564.30;210203;1295;140541;-66
2022/12/11 14:54:41;;;;;;;26.80;14.20;;;;;;;-2.09;80.74;98559.37;210410;1294;140942;-67
2022/12/11 14:59:48;;;;;;;19.90;13.40;;;;;;;-2.06;80.68;98562.91;210372;1290;141296;-62
2022/12/11 15:05:17;;;;;;;24.60;14.80;;;;;;;-2.04;80.81;98564.41;210418;1295;141026;-63
2022/12/11 15:10:34;;;;;;;;;;;;;;;-2.05;81.05;98567.30;210569;1300;141515;-62
2022/12/11 15:15:45;;;;;;;19.70;11.80;;;;;;;-2.13;80.88;98564.19;211368;1298;125901;-63
2022/12/11 15:20:55;;;;;;;27.20;15.70;;;;;;;-2.19;81.00;98565.04;210505;1292;140905;-67
2022/12/11 15:26:01;;;;;;;23.70;14.40;;;;;;;-2.15;81.03;98557.83;210445;1292;141295;-67
2022/12/11 15:31:21;;;;;;;32.40;17.00;;;;;;;-2.13;81.06;98562.62;210505;1291;139987;-66
2022/12/11 15:36:35;;;;;;;23.00;13.60;;;;;;;-2.12;81.30;98558.89;210454;1292;140150;-67
2022/12/11 15:41:41;;;;;;;15.20;9.20;;;;;;;-2.18;81.08;98554.86;210499;1287;139753;-65
2022/12/11 15:46:45;;;;;;;18.90;11.10;;;;;;;-2.28;80.67;98553.52;210458;1292;142662;-69
2022/12/11 15:51:49;;;;;;;19.80;11.50;;;;;;;-2.30;80.73;98553.73;210755;1292;141135;-67
2022/12/11 15:56:53;;;;;;;23.10;13.00;;;;;;;-2.32;80.69;98554.35;210468;1291;141059;-66
2022/12/11 16:01:58;;;;;;;20.00;12.40;;;;;;;-2.37;80.89;98552.12;209022;1287;142951;-66
2022/12/11 16:07:14;;;;;;;18.70;10.80;;;;;;;-2.41;81.11;98559.70;210255;1294;140006;-66
2022/12/11 16:12:18;;;;;;;24.80;13.30;;;;;;;-2.44;81.00;98560.58;210216;1286;140409;-65
2022/12/11 16:17:23;;;;;;;21.40;10.90;;;;;;;-2.42;80.95;98556.67;210523;1293;140460;-66
2022/12/11 16:22:28;;;;;;;21.80;14.80;;;;;;;-2.43;81.07;98555.53;207999;1290;302996;-65
2022/12/11 16:27:32;;;;;;;26.40;14.00;;;;;;;-2.48;81.09;98557.64;209427;1286;141135;-67
2022/12/11 16:32:38;;;;;;;25.50;14.30;;;;;;;-2.60;81.04;98553.73;210396;1273;140604;-67
2022/12/11 16:37:45;;;;;;;26.50;18.40;;;;;;;-2.65;81.27;98549.08;210423;1285;140637;-65
2022/12/11 16:42:52;;;;;;;38.40;19.90;;;;;;;-2.56;81.39;98542.36;209363;1292;141730;-63
2022/12/11 16:48:02;;;;;;;29.30;18.80;;;;;;;-2.54;81.13;98537.58;210495;1294;141128;-66
2022/12/11 16:53:07;;;;;;;26.40;14.50;;;;;;;-2.61;80.99;98540.56;210462;1295;139378;-67
2022/12/11 16:58:18;;;;;;;22.90;12.80;;;;;;;-2.66;81.13;98543.41;210760;1292;140300;-65
2022/12/11 17:03:23;;;;;;;23.10;12.80;;;;;;;-2.69;81.15;98541.52;210600;1290;226903;-68
2022/12/11 17:08:26;;;;;;;23.60;13.90;;;;;;;-2.68;80.83;98537.48;210098;1301;141308;-68
2022/12/11 17:13:30;;;;;;;25.90;16.40;;;;;;;-2.68;81.15;98535.80;210080;1295;140117;-67
2022/12/11 17:18:39;;;;;;;23.70;15.30;;;;;;;-2.69;81.28;98537.18;209855;1286;140156;-66
2022/12/11 17:23:43;;;;;;;27.90;15.50;;;;;;;-2.73;81.29;98538.91;210197;1286;140484;-68
2022/12/11 17:28:47;;;;;;;35.00;20.40;;;;;;;-2.74;81.50;98542.09;210163;1294;141496;-68
2022/12/11 17:33:52;;;;;;;24.60;14.00;;;;;;;-2.74;81.59;98547.08;210446;1294;139697;-67
2022/12/11 17:38:57;;;;;;;48.60;21.10;;;;;;;-2.75;81.42;98544.81;210212;1294;140207;-63
2022/12/11 17:44:00;;;;;;;37.10;20.80;;;;;;;-2.68;81.27;98546.72;210204;1294;140224;-65
2022/12/11 17:49:04;;;;;;;35.80;21.00;;;;;;;-2.67;81.21;98549.61;210304;1281;141376;-65
2022/12/11 17:54:10;;;;;;;35.90;20.10;;;;;;;-2.67;81.30;98547.85;210222;1294;140908;-68
2022/12/11 17:59:14;;;;;;;36.80;22.00;;;;;;;-2.70;81.40;98548.17;210260;1294;140054;-64
2022/12/11 18:04:19;;;;;;;33.80;17.10;;;;;;;-2.70;81.41;98547.84;210405;1294;140158;-63
2022/12/11 18:09:23;;;;;;;36.10;20.90;;;;;;;-2.66;81.15;98551.63;210524;1294;140309;-64
2022/12/11 18:14:27;;;;;;;36.60;24.40;;;;;;;-2.73;81.23;98555.55;210395;1292;140421;-66
2022/12/11 18:19:32;;;;;;;47.30;24.00;;;;;;;-2.74;81.48;98551.24;210414;1285;140325;-63
2022/12/11 18:24:37;;;;;;;34.10;20.50;;;;;;;-2.76;81.28;98554.23;210474;1292;151298;-63
2022/12/11 18:29:41;;;;;;;37.10;21.80;;;;;;;-2.76;81.19;98549.21;208986;1293;140596;-65
2022/12/11 18:34:47;;;;;;;39.40;20.90;;;;;;;-2.72;81.30;98554.35;209146;1286;140770;-63
2022/12/11 18:39:53;;;;;;;48.70;24.90;;;;;;;-2.79;81.24;98548.23;208358;1285;141385;-66
2022/12/11 18:44:57;;;;;;;36.60;22.10;;;;;;;-2.84;81.38;98543.21;209054;1292;140589;-66
2022/12/11 18:50:02;;;;;;;36.70;21.00;;;;;;;-2.91;81.45;98541.94;210704;1292;141807;-62
2022/12/11 18:55:10;;;;;;;45.40;24.80;;;;;;;-2.93;81.51;98543.33;210490;1295;142285;-62
2022/12/11 19:00:15;;;;;;;47.50;24.30;;;;;;;-2.89;81.44;98541.38;209287;1288;141544;-63
2022/12/11 19:05:20;;;;;;;48.30;25.00;;;;;;;-2.85;81.48;98540.75;210350;1298;141398;-63
2022/12/11 19:10:24;;;;;;;43.80;22.10;;;;;;;-2.89;81.58;98543.80;210712;1283;139463;-62
2022/12/11 19:15:29;;;;;;;26.40;16.00;;;;;;;-2.92;81.54;98543.84;210555;1295;139678;-63
2022/12/11 19:20:42;;;;;;;46.00;24.30;;;;;;;-2.92;81.63;98536.58;210451;1294;139707;-62
2022/12/11 19:25:53;;;;;;;48.90;25.60;;;;;;;-2.88;81.53;98539.05;210497;1285;140763;-66
2022/12/11 19:30:58;;;;;;;52.20;27.30;;;;;;;-2.88;81.34;98532.06;210353;1292;140409;-63
2022/12/11 19:36:04;;;;;;;54.70;23.70;;;;;;;-2.87;81.66;98519.13;210491;1291;139752;-63
2022/12/11 19:41:25;;;;;;;47.10;23.20;;;;;;;-2.89;81.66;98520.98;210589;1292;141959;-63
2022/12/11 19:46:30;;;;;;;42.70;22.20;;;;;;;-2.94;81.71;98518.66;210514;1286;139356;-64
2022/12/11 19:51:39;;;;;;;50.80;24.30;;;;;;;-2.95;81.65;98525.55;210487;1289;140491;-63
2022/12/11 19:56:45;;;;;;;39.50;21.00;;;;;;;-2.90;81.45;98521.38;210506;1293;139888;-64
2022/12/11 20:01:49;;;;;;;40.30;22.80;;;;;;;-2.85;81.54;98517.95;210500;1293;141035;-65
2022/12/11 20:06:53;;;;;;;45.90;25.50;;;;;;;-2.83;81.51;98513.13;209946;1292;140829;-63
2022/12/11 20:11:58;;;;;;;45.00;24.20;;;;;;;-2.86;81.51;98511.52;210657;1292;140197;-62
2022/12/11 20:17:04;;;;;;;41.60;21.90;;;;;;;-2.88;81.49;98502.42;210587;1294;140811;-64
2022/12/11 20:22:15;;;;;;;32.30;19.70;;;;;;;-2.84;81.50;98502.17;210723;1292;140337;-64
2022/12/11 20:27:20;;;;;;;42.10;23.00;;;;;;;-2.84;81.62;98497.15;208206;1292;141339;-65
2022/12/11 20:32:24;;;;;;;36.10;21.80;;;;;;;-2.86;81.81;98492.88;210426;1288;139846;-64
2022/12/11 20:37:29;;;;;;;34.00;17.80;;;;;;;-2.91;81.56;98492.08;210368;1295;140066;-64
2022/12/11 20:42:33;;;;;;;38.00;22.10;;;;;;;-2.93;81.49;98488.35;208826;1284;140307;-65
2022/12/11 20:47:37;;;;;;;32.00;18.80;;;;;;;-2.89;81.60;98491.86;210490;1292;142078;-65
2022/12/11 20:52:41;;;;;;;46.00;21.50;;;;;;;-2.92;81.78;98497.66;210567;1292;139871;-64
2022/12/11 20:57:46;;;;;;;28.70;17.80;;;;;;;-2.92;81.84;98494.83;209783;1289;139914;-64
2022/12/11 21:02:50;;;;;;;41.50;19.30;;;;;;;-2.92;81.74;98487.73;210524;1288;141325;-63
2022/12/11 21:07:55;;;;;;;36.70;19.90;;;;;;;-2.83;81.82;98486.13;208996;1294;141094;-63
2022/12/11 21:13:01;;;;;;;41.90;22.70;;;;;;;-2.82;81.74;98486.34;210448;1295;141863;-63
2022/12/11 21:18:06;;;;;;;38.50;21.90;;;;;;;-2.85;81.83;98482.33;210210;1295;142042;-63
2022/12/11 21:23:10;;;;;;;33.10;18.80;;;;;;;-2.85;81.95;98479.08;210384;1295;141284;-63
2022/12/11 21:28:14;;;;;;;39.00;21.00;;;;;;;-2.89;81.84;98472.60;210612;1292;141406;-64
2022/12/11 21:33:19;;;;;;;38.40;18.20;;;;;;;-2.86;81.76;98471.65;210478;1295;141252;-64
2022/12/11 21:38:25;;;;;;;33.90;19.40;;;;;;;-2.80;81.83;98470.09;210562;1301;141627;-64
2022/12/11 21:43:29;;;;;;;31.80;16.00;;;;;;;-2.79;81.83;98476.40;210400;1285;141219;-63
2022/12/11 21:48:33;;;;;;;39.10;21.20;;;;;;;-2.85;81.77;98483.86;210372;1296;140180;-64
2022/12/11 21:53:38;;;;;;;35.30;18.80;;;;;;;-2.83;81.78;98484.77;210305;1285;141171;-65
2022/12/11 21:58:42;;;;;;;30.60;17.70;;;;;;;-2.81;81.83;98474.20;210454;1291;140301;-63
2022/12/11 22:03:48;;;;;;;32.70;19.30;;;;;;;-2.83;81.88;98476.67;210650;1292;140856;-63
2022/12/11 22:08:53;;;;;;;34.80;20.00;;;;;;;-2.86;81.91;98483.20;210483;1292;140845;-62
2022/12/11 22:13:58;;;;;;;35.80;20.00;;;;;;;-2.86;81.98;98482.44;210604;1292;140301;-63
2022/12/11 22:19:04;;;;;;;30.60;15.20;;;;;;;-2.81;82.08;98483.95;208344;1285;139675;-62
2022/12/11 22:24:09;;;;;;;36.60;17.80;;;;;;;-2.74;82.11;98476.89;210610;1294;140267;-63
2022/12/11 22:29:14;;;;;;;38.60;22.30;;;;;;;-2.71;82.40;98476.00;210306;1292;141702;-62
2022/12/11 22:34:20;;;;;;;38.40;19.20;;;;;;;-2.73;82.16;98472.44;210707;1292;139672;-62
2022/12/11 22:39:26;;;;;;;28.30;17.70;;;;;;;-2.73;82.53;98469.92;210755;1291;140442;-62
2022/12/11 22:44:31;;;;;;;37.10;17.40;;;;;;;-2.70;82.66;98476.22;210726;1292;140034;-62
2022/12/11 22:49:36;;;;;;;35.60;17.60;;;;;;;-2.66;82.29;98474.74;208843;1295;140052;-61
2022/12/11 22:54:41;;;;;;;28.90;16.10;;;;;;;-2.60;82.39;98478.85;210262;1292;142961;-63
2022/12/11 22:59:47;;;;;;;30.70;18.50;;;;;;;-2.55;82.57;98476.06;210588;1292;141475;-63
2022/12/11 23:04:53;;;;;;;32.20;16.50;;;;;;;-2.53;82.57;98475.54;210692;1292;140234;-63
2022/12/11 23:09:58;;;;;;;15.20;7.80;;;;;;;-2.54;82.34;98475.84;210813;1284;141457;-65
2022/12/11 23:15:03;;;;;;;34.10;16.90;;;;;;;-2.56;82.53;98473.69;210529;1292;141282;-62